This is the latest recevied weather packets stored in our database for station/object SA7AHC. If no packets are shown the sender has not sent any weather packets the latest 10 day(s).
| Time | Temp. | Humidity | Pressure | Rain* | Wind** | Luminosity | Snow |
|---|---|---|---|---|---|---|---|
| 1777664436 | 13.33° C | 49% | 1024.3 hPa | 0 mm | - | 0 W/m² | - |
| 1777663833 | 13.33° C | 50% | 1024.4 hPa | 0 mm | - | 0 W/m² | - |
| 1777663237 | 13.89° C | 50% | 1024.3 hPa | 0 mm | - | 0 W/m² | - |
| 1777662634 | 14.44° C | 46% | 1024.4 hPa | 0 mm | - | 0 W/m² | - |
| 1777662035 | 15° C | 43% | 1024.5 hPa | 0 mm | - | 0 W/m² | - |
| 1777661432 | 15.56° C | 43% | 1024.3 hPa | 0 mm | - | 0 W/m² | - |
| 1777660831 | 16.11° C | 42% | 1024.4 hPa | 0 mm | - | 5 W/m² | - |
| 1777660234 | 16.67° C | 40% | 1024.5 hPa | 0 mm | - | 7 W/m² | - |
| 1777659648 | 17.78° C | 38% | 1024.5 hPa | 0 mm | - | 9 W/m² | - |
| 1777659037 | 18.33° C | 36% | 1024.6 hPa | 0 mm | - | 12 W/m² | - |
| 1777658445 | 18.89° C | 34% | 1024.5 hPa | 0 mm | - | 16 W/m² | - |
| 1777657847 | 19.44° C | 33% | 1024.4 hPa | 0 mm | - | 18 W/m² | - |
| 1777657234 | 19.44° C | 32% | 1024.4 hPa | 0 mm | - | 19 W/m² | - |
| 1777656638 | 20° C | 30% | 1024.6 hPa | 0 mm | - | 23 W/m² | - |
| 1777656032 | 20.56° C | 29% | 1024.7 hPa | 0 mm | - | 26 W/m² | - |
| 1777655435 | 20.56° C | 28% | 1024.8 hPa | 0 mm | - | 39 W/m² | - |
| 1777654837 | 21.11° C | 27% | 1024.9 hPa | 0 mm | - | 84 W/m² | - |
| 1777654236 | 21.67° C | 27% | 1024.9 hPa | 0 mm | - | 174 W/m² | - |
| 1777653632 | 21.67° C | 27% | 1025 hPa | 0 mm | - | 204 W/m² | - |
| 1777653034 | 21.67° C | 26% | 1025.2 hPa | 0 mm | - | 225 W/m² | - |
| 1777652429 | 22.22° C | 25% | 1025.1 hPa | 0 mm | - | 258 W/m² | - |
| 1777651834 | 22.22° C | 25% | 1025.1 hPa | 0 mm | - | 281 W/m² | - |
| 1777651233 | 22.22° C | 26% | 1025.2 hPa | 0 mm | - | 309 W/m² | - |
| 1777650628 | 22.78° C | 24% | 1025.4 hPa | 0 mm | - | 332 W/m² | - |
| 1777650033 | 22.78° C | 24% | 1025.4 hPa | 0 mm | - | 359 W/m² | - |
* Rain latest hour (hover to see other rain measurements)
** Current wind speed in m/s (hover to see current wind gust speed)